Time;durP1;ratioP1;P1;durP2;ratioP2;P2;SDS_P1;SDS_P2;PMS_P1;PMS_P2;Temp;Humidity;BMP_temperature;BMP_pressure;BME280_temperature;BME280_humidity;BME280_pressure;Samples;Min_cycle;Max_cycle;Signal;HPM_P1;HPM_P2
2021/10/09 00:00:54;;;;;;;94.50;19.90;;;;;;;-145.18;0.00;102943.50;5068985;28;20138;-76
2021/10/09 00:03:19;;;;;;;94.33;20.87;;;;;;;-145.18;0.00;102943.50;5069256;28;20082;-76
2021/10/09 00:05:45;;;;;;;77.90;18.13;;;;;;;-145.18;0.00;102943.50;5069804;28;20058;-75
2021/10/09 00:08:15;;;;;;;73.07;17.90;;;;;;;-145.18;0.00;102943.50;5073413;28;20039;-75
2021/10/09 00:10:45;;;;;;;67.03;17.10;;;;;;;-145.18;0.00;102943.50;5074339;28;20044;-76
2021/10/09 00:13:11;;;;;;;68.03;15.87;;;;;;;-145.18;0.00;102943.50;5073701;28;20032;-76
2021/10/09 00:15:40;;;;;;;80.00;16.90;;;;;;;-145.18;0.00;102943.50;5058361;28;20107;-76
2021/10/09 00:18:06;;;;;;;79.87;17.53;;;;;;;-145.18;0.00;102943.50;5065110;28;20044;-76
2021/10/09 00:20:32;;;;;;;78.10;17.90;;;;;;;-145.18;0.00;102943.50;5065723;28;20501;-76
2021/10/09 00:22:58;;;;;;;108.70;19.63;;;;;;;-145.18;0.00;102943.50;5073574;28;20043;-76
2021/10/09 00:25:24;;;;;;;107.17;19.83;;;;;;;-145.18;0.00;102943.50;5075738;28;20025;-76
2021/10/09 00:27:50;;;;;;;120.90;20.80;;;;;;;-145.18;0.00;102943.50;5073821;28;20024;-76
2021/10/09 00:30:16;;;;;;;113.33;21.63;;;;;;;-145.18;0.00;102943.50;5059116;28;20035;-77
2021/10/09 00:32:41;;;;;;;105.43;21.23;;;;;;;-145.18;0.00;102943.50;5067345;28;20023;-76
2021/10/09 00:35:07;;;;;;;109.10;20.97;;;;;;;-145.18;0.00;102943.50;5068697;28;20410;-76
2021/10/09 00:37:33;;;;;;;120.03;21.83;;;;;;;-145.18;0.00;102943.50;5069738;28;20050;-76
2021/10/09 00:39:58;;;;;;;129.30;21.43;;;;;;;-145.18;0.00;102943.50;5071570;28;20456;-76
2021/10/09 00:42:24;;;;;;;135.17;22.07;;;;;;;-145.18;0.00;102943.50;5071486;28;20035;-76
2021/10/09 00:44:49;;;;;;;119.67;20.93;;;;;;;-145.18;0.00;102943.50;5074913;28;20036;-77
2021/10/09 00:47:16;;;;;;;128.40;22.77;;;;;;;-145.18;0.00;102943.50;5079323;28;20087;-76
2021/10/09 00:49:42;;;;;;;127.63;22.47;;;;;;;-145.18;0.00;102943.50;5072474;28;20016;-76
2021/10/09 00:52:10;;;;;;;130.53;21.70;;;;;;;-145.18;0.00;102943.50;5079266;28;20024;-76
2021/10/09 00:54:42;;;;;;;113.47;21.77;;;;;;;-145.18;0.00;102943.50;5072693;28;20024;-76
2021/10/09 00:57:08;;;;;;;137.27;22.63;;;;;;;-145.18;0.00;102943.50;5070618;28;20399;-76
2021/10/09 00:59:37;;;;;;;129.23;23.53;;;;;;;-145.18;0.00;102943.50;5064859;28;20109;-75
2021/10/09 01:02:03;;;;;;;122.47;21.70;;;;;;;-145.18;0.00;102943.50;5074539;28;20482;-76
2021/10/09 01:04:31;;;;;;;115.20;21.70;;;;;;;-145.18;0.00;102943.50;5075043;28;20145;-75
2021/10/09 01:06:56;;;;;;;123.10;21.40;;;;;;;-145.18;0.00;102943.50;5078032;28;20032;-77
2021/10/09 01:09:22;;;;;;;116.87;21.83;;;;;;;-145.18;0.00;102943.50;5070744;28;20020;-76
2021/10/09 01:11:47;;;;;;;110.97;21.27;;;;;;;-145.18;0.00;102943.50;5074312;28;20046;-76
2021/10/09 01:14:13;;;;;;;112.03;21.53;;;;;;;-145.18;0.00;102943.50;5078657;28;20028;-75
2021/10/09 01:16:38;;;;;;;123.87;21.80;;;;;;;-145.18;0.00;102943.50;5077916;28;20613;-76
2021/10/09 01:19:06;;;;;;;113.27;19.63;;;;;;;-145.18;0.00;102943.50;5070765;28;20466;-76
2021/10/09 01:21:40;;;;;;;113.77;21.20;;;;;;;-145.18;0.00;102943.50;5068243;28;20020;-75
2021/10/09 01:24:06;;;;;;;117.47;20.67;;;;;;;-145.18;0.00;102943.50;5076527;28;20177;-76
2021/10/09 01:26:32;;;;;;;115.03;20.20;;;;;;;-145.18;0.00;102943.50;5073019;28;20028;-75
2021/10/09 01:28:58;;;;;;;113.83;21.70;;;;;;;-145.18;0.00;102943.50;5072357;28;20024;-75
2021/10/09 01:31:23;;;;;;;102.73;20.67;;;;;;;-145.18;0.00;102943.50;5068263;28;20506;-75
2021/10/09 01:33:49;;;;;;;118.70;20.57;;;;;;;-145.18;0.00;102943.50;5066497;28;20042;-76
2021/10/09 01:36:14;;;;;;;117.43;21.50;;;;;;;-145.18;0.00;102943.50;5070926;28;20387;-76
2021/10/09 01:38:47;;;;;;;110.53;20.80;;;;;;;-145.18;0.00;102943.50;5077552;28;20051;-76
2021/10/09 01:41:13;;;;;;;;;;;;;;;-145.18;0.00;102943.50;5065430;28;20021;-76
2021/10/09 01:43:39;;;;;;;113.87;22.00;;;;;;;-145.18;0.00;102943.50;5069343;28;20340;-76
2021/10/09 01:46:04;;;;;;;109.50;21.40;;;;;;;-145.18;0.00;102943.50;5069397;28;20246;-76
2021/10/09 01:48:32;;;;;;;104.13;21.70;;;;;;;-145.18;0.00;102943.50;5071459;28;20020;-76
2021/10/09 01:50:58;;;;;;;105.20;21.63;;;;;;;-145.18;0.00;102943.50;5074080;28;20031;-75
2021/10/09 01:53:23;;;;;;;107.53;21.30;;;;;;;-145.18;0.00;102943.50;5068145;28;20028;-76
2021/10/09 01:55:49;;;;;;;123.00;20.83;;;;;;;-145.18;0.00;102943.50;5067728;28;20054;-76
2021/10/09 01:58:15;;;;;;;104.20;20.07;;;;;;;-145.18;0.00;102943.50;5073520;28;20047;-76
2021/10/09 02:00:40;;;;;;;99.37;19.33;;;;;;;-145.18;0.00;102943.50;5071075;28;20024;-76
2021/10/09 02:03:07;;;;;;;96.07;18.83;;;;;;;-145.18;0.00;102943.50;5067878;28;20031;-76
2021/10/09 02:05:34;;;;;;;96.73;19.00;;;;;;;-145.18;0.00;102943.50;5076706;28;20039;-76
2021/10/09 02:08:00;;;;;;;84.37;18.00;;;;;;;-145.18;0.00;102943.50;5078478;28;20171;-76
2021/10/09 02:10:26;;;;;;;81.43;17.70;;;;;;;-145.18;0.00;102943.50;5075011;28;20055;-76
2021/10/09 02:12:52;;;;;;;92.40;19.13;;;;;;;-145.18;0.00;102943.50;5065879;28;20489;-76
2021/10/09 02:15:44;;;;;;;99.20;19.13;;;;;;;-145.18;0.00;102943.50;5072179;28;20044;-76
2021/10/09 02:18:50;;;;;;;104.20;19.43;;;;;;;-145.18;0.00;102943.50;5069392;28;20039;-76
2021/10/09 02:26:20;;;;;;;110.10;20.07;;;;;;;-145.18;0.00;102943.50;5070516;28;20093;-76
2021/10/09 02:28:50;;;;;;;102.67;19.33;;;;;;;-145.18;0.00;102943.50;5065488;28;20032;-75
2021/10/09 02:31:15;;;;;;;100.27;19.47;;;;;;;-145.18;0.00;102943.50;5062455;28;20281;-76
2021/10/09 02:33:41;;;;;;;108.87;19.53;;;;;;;-145.18;0.00;102943.50;5067106;28;20043;-76
2021/10/09 02:36:06;;;;;;;98.47;19.13;;;;;;;-145.18;0.00;102943.50;5078489;28;20039;-76
2021/10/09 02:38:32;;;;;;;90.23;18.57;;;;;;;-145.18;0.00;102943.50;5079030;28;20024;-75
2021/10/09 02:40:57;;;;;;;94.33;19.40;;;;;;;-145.18;0.00;102943.50;5069384;28;20367;-75
2021/10/09 02:43:23;;;;;;;104.20;20.90;;;;;;;-145.18;0.00;102943.50;5075628;28;20024;-75
2021/10/09 02:45:48;;;;;;;111.00;21.20;;;;;;;-145.18;0.00;102943.50;5074453;28;20034;-75
2021/10/09 02:48:16;;;;;;;116.33;22.67;;;;;;;-145.18;0.00;102943.50;5076592;28;20024;-75
2021/10/09 02:50:43;;;;;;;120.37;22.13;;;;;;;-145.18;0.00;102943.50;5072194;28;20024;-76
2021/10/09 02:53:08;;;;;;;110.13;21.23;;;;;;;-145.18;0.00;102943.50;5075125;28;20031;-75
2021/10/09 02:55:34;;;;;;;106.07;20.00;;;;;;;-145.18;0.00;102943.50;5077719;28;20244;-75
2021/10/09 02:57:59;;;;;;;116.63;21.50;;;;;;;-145.18;0.00;102943.50;5074360;28;20024;-75
2021/10/09 03:00:24;;;;;;;124.20;21.90;;;;;;;-145.18;0.00;102943.50;5070213;28;20510;-75
2021/10/09 03:02:50;;;;;;;117.97;21.73;;;;;;;-145.18;0.00;102943.50;5079065;28;20260;-75
2021/10/09 03:05:16;;;;;;;129.03;21.70;;;;;;;-145.18;0.00;102943.50;5072225;28;20212;-75
2021/10/09 03:07:42;;;;;;;123.67;22.17;;;;;;;-145.18;0.00;102943.50;5071505;28;20127;-75
2021/10/09 03:10:09;;;;;;;118.97;21.83;;;;;;;-145.18;0.00;102943.50;5072950;28;20047;-75
2021/10/09 03:12:35;;;;;;;109.17;22.27;;;;;;;-145.18;0.00;102943.50;5073843;28;20035;-75
2021/10/09 03:15:00;;;;;;;101.73;21.67;;;;;;;-145.18;0.00;102943.50;5066122;28;20028;-75
2021/10/09 03:17:26;;;;;;;110.67;21.80;;;;;;;-145.18;0.00;102943.50;5065499;28;20652;-76
2021/10/09 03:19:52;;;;;;;102.77;21.57;;;;;;;-145.18;0.00;102943.50;5069568;28;20078;-76
2021/10/09 03:22:17;;;;;;;115.13;20.90;;;;;;;-145.18;0.00;102943.50;5069841;28;20085;-75
2021/10/09 03:24:43;;;;;;;113.97;22.90;;;;;;;-145.18;0.00;102943.50;5071743;28;20081;-76
2021/10/09 03:27:08;;;;;;;107.77;21.67;;;;;;;-145.18;0.00;102943.50;5071584;28;20024;-75
2021/10/09 03:29:34;;;;;;;108.73;21.80;;;;;;;-145.18;0.00;102943.50;5073717;28;20110;-75
2021/10/09 03:31:59;;;;;;;125.47;22.17;;;;;;;-145.18;0.00;102943.50;5067859;28;20627;-76
2021/10/09 03:34:25;;;;;;;120.17;21.93;;;;;;;-145.18;0.00;102943.50;5069383;28;20115;-75
2021/10/09 03:36:50;;;;;;;141.33;23.67;;;;;;;-145.18;0.00;102943.50;5075167;28;20221;-75
2021/10/09 03:39:19;;;;;;;129.93;21.90;;;;;;;-145.18;0.00;102943.50;5067418;28;20570;-75
2021/10/09 03:41:51;;;;;;;141.63;23.10;;;;;;;-145.18;0.00;102943.50;5069231;28;20062;-76
2021/10/09 03:44:16;;;;;;;158.13;23.85;;;;;;;-145.18;0.00;102943.50;5074434;28;20606;-76
2021/10/09 03:46:45;;;;;;;182.03;24.93;;;;;;;-145.18;0.00;102943.50;5066313;28;20047;-76
2021/10/09 03:49:55;;;;;;;174.30;22.47;;;;;;;-145.18;0.00;102943.50;5074010;28;20056;-76
2021/10/09 03:54:43;;;;;;;196.23;23.80;;;;;;;-145.18;0.00;102943.50;5067007;28;20095;-76
2021/10/09 03:57:08;;;;;;;146.30;20.83;;;;;;;-145.18;0.00;102943.50;5068053;28;20459;-75
2021/10/09 03:59:34;;;;;;;140.93;22.17;;;;;;;-145.18;0.00;102943.50;5058431;28;20265;-75
2021/10/09 04:01:59;;;;;;;142.20;21.77;;;;;;;-145.18;0.00;102943.50;5061694;28;20506;-76
2021/10/09 04:04:27;;;;;;;193.20;22.93;;;;;;;-145.18;0.00;102943.50;5074141;28;20035;-76
2021/10/09 04:06:53;;;;;;;159.07;21.80;;;;;;;-145.18;0.00;102943.50;5061669;28;20054;-76
2021/10/09 04:09:18;;;;;;;149.73;22.67;;;;;;;-145.18;0.00;102943.50;5064414;28;20103;-76
2021/10/09 04:11:47;;;;;;;140.77;21.13;;;;;;;-145.18;0.00;102943.50;5065523;28;20208;-76
2021/10/09 04:14:13;;;;;;;104.80;21.20;;;;;;;-145.18;0.00;102943.50;5059207;28;20020;-75
2021/10/09 04:16:41;;;;;;;132.40;22.53;;;;;;;-145.18;0.00;102943.50;5058771;28;20417;-76
2021/10/09 04:19:07;;;;;;;156.80;23.90;;;;;;;-145.18;0.00;102943.50;5073001;28;20117;-76
2021/10/09 04:21:32;;;;;;;135.57;21.13;;;;;;;-145.18;0.00;102943.50;5077050;28;20077;-75
2021/10/09 04:23:58;;;;;;;129.73;21.93;;;;;;;-145.18;0.00;102943.50;5069435;28;20025;-76
2021/10/09 04:26:23;;;;;;;128.37;20.90;;;;;;;-145.18;0.00;102943.50;5074870;28;20249;-76
2021/10/09 04:28:49;;;;;;;142.93;21.87;;;;;;;-145.18;0.00;102943.50;5076425;28;20546;-76
2021/10/09 04:31:14;;;;;;;112.53;21.57;;;;;;;-145.18;0.00;102943.50;5080002;28;20514;-75
2021/10/09 04:33:40;;;;;;;135.47;21.10;;;;;;;-145.18;0.00;102943.50;5077983;28;20032;-76
2021/10/09 04:36:07;;;;;;;130.30;22.37;;;;;;;-145.18;0.00;102943.50;5078355;28;20176;-76
2021/10/09 04:38:33;;;;;;;116.87;21.37;;;;;;;-145.18;0.00;102943.50;5076952;28;20111;-75
2021/10/09 04:40:58;;;;;;;108.70;21.80;;;;;;;-145.18;0.00;102943.50;5075544;28;20593;-76
2021/10/09 04:43:23;;;;;;;101.20;21.33;;;;;;;-145.18;0.00;102943.50;5070712;28;20030;-75
2021/10/09 04:45:49;;;;;;;104.10;21.00;;;;;;;-145.18;0.00;102943.50;5074751;28;20410;-75
2021/10/09 04:48:14;;;;;;;106.60;20.13;;;;;;;-145.18;0.00;102943.50;5071710;28;20056;-75
2021/10/09 04:50:40;;;;;;;100.20;20.47;;;;;;;-145.18;0.00;102943.50;5071503;28;20286;-76
2021/10/09 04:53:06;;;;;;;100.80;21.43;;;;;;;-145.18;0.00;102943.50;5077836;28;20024;-75
2021/10/09 04:55:31;;;;;;;91.47;19.07;;;;;;;-145.18;0.00;102943.50;5080632;28;20043;-75
2021/10/09 04:57:57;;;;;;;97.97;21.67;;;;;;;-145.18;0.00;102943.50;5074553;28;20425;-76
2021/10/09 05:00:23;;;;;;;105.83;21.23;;;;;;;-145.18;0.00;102943.50;5081466;28;20039;-76
2021/10/09 05:02:48;;;;;;;111.00;21.43;;;;;;;-145.18;0.00;102943.50;5078169;28;20111;-76
2021/10/09 05:05:14;;;;;;;107.37;21.60;;;;;;;-145.18;0.00;102943.50;5079090;28;20097;-76
2021/10/09 05:07:39;;;;;;;95.37;20.70;;;;;;;-145.18;0.00;102943.50;5074683;28;20032;-76
2021/10/09 05:10:07;;;;;;;105.07;21.10;;;;;;;-145.18;0.00;102943.50;5071537;28;20548;-75
2021/10/09 05:12:32;;;;;;;100.90;20.80;;;;;;;-145.18;0.00;102943.50;5075375;28;20065;-75
2021/10/09 05:14:58;;;;;;;113.80;21.27;;;;;;;-145.18;0.00;102943.50;5080598;28;20032;-76
2021/10/09 05:17:23;;;;;;;116.60;22.53;;;;;;;-145.18;0.00;102943.50;5071868;28;20104;-76
2021/10/09 05:19:48;;;;;;;109.13;22.40;;;;;;;-145.18;0.00;102943.50;5077342;28;20291;-75
2021/10/09 05:22:14;;;;;;;114.07;22.57;;;;;;;-145.18;0.00;102943.50;5078925;28;20047;-76
2021/10/09 05:24:39;;;;;;;100.37;22.53;;;;;;;-145.18;0.00;102943.50;5074696;28;20554;-76
2021/10/09 05:27:05;;;;;;;113.90;22.73;;;;;;;-145.18;0.00;102943.50;5068047;28;20253;-76
2021/10/09 05:29:31;;;;;;;97.53;22.83;;;;;;;-145.18;0.00;102943.50;5061640;28;20129;-76
2021/10/09 05:32:04;;;;;;;108.13;22.53;;;;;;;-145.18;0.00;102943.50;5062641;28;20024;-76
2021/10/09 05:34:30;;;;;;;99.27;22.10;;;;;;;-145.18;0.00;102943.50;5066556;28;20024;-76
2021/10/09 05:36:57;;;;;;;99.03;22.07;;;;;;;-145.18;0.00;102943.50;5067267;28;20570;-75
2021/10/09 05:39:23;;;;;;;107.67;24.30;;;;;;;-145.18;0.00;102943.50;5069917;28;20024;-75
2021/10/09 05:41:48;;;;;;;103.77;22.63;;;;;;;-145.18;0.00;102943.50;5070418;28;20020;-75
2021/10/09 05:44:14;;;;;;;96.00;22.50;;;;;;;-145.18;0.00;102943.50;5064837;28;20036;-76
2021/10/09 05:46:39;;;;;;;92.47;20.77;;;;;;;-145.18;0.00;102943.50;5062663;28;20057;-75
2021/10/09 05:49:05;;;;;;;101.33;23.17;;;;;;;-145.18;0.00;102943.50;5067639;28;20044;-75
2021/10/09 05:51:34;;;;;;;99.97;22.23;;;;;;;-145.18;0.00;102943.50;5071261;28;20710;-76
2021/10/09 05:56:57;;;;;;;115.43;22.83;;;;;;;-145.18;0.00;102943.50;4994722;28;20475;-76
2021/10/09 06:47:04;;;;;;;63.53;20.20;;;;;;;-145.18;0.00;102943.50;4960258;28;20038;-74
2021/10/09 06:50:32;;;;;;;62.77;19.13;;;;;;;-145.18;0.00;102943.50;4957296;28;20292;-74
2021/10/09 07:00:28;;;;;;;48.20;15.63;;;;;;;-145.18;0.00;102943.50;4960006;28;20419;-74
2021/10/09 07:02:53;;;;;;;51.70;17.07;;;;;;;-145.18;0.00;102943.50;4959233;28;20372;-74
2021/10/09 07:05:19;;;;;;;47.43;16.47;;;;;;;-145.18;0.00;102943.50;4957611;28;20054;-74
2021/10/09 07:07:51;;;;;;;47.23;14.97;;;;;;;-145.18;0.00;102943.50;4965287;28;20058;-75
2021/10/09 07:10:16;;;;;;;45.88;16.02;;;;;;;-145.18;0.00;102943.50;4972242;28;20061;-74
2021/10/09 07:12:42;;;;;;;41.10;14.57;;;;;;;-145.18;0.00;102943.50;4969614;28;20079;-74
2021/10/09 07:15:09;;;;;;;33.13;14.33;;;;;;;-145.18;0.00;102943.50;4940031;28;20274;-74
2021/10/09 07:17:35;;;;;;;33.20;14.00;;;;;;;-145.18;0.00;102943.50;4944714;28;20031;-74
2021/10/09 07:20:04;;;;;;;32.43;13.40;;;;;;;-145.18;0.00;102943.50;4955623;28;20284;-74
2021/10/09 07:22:29;;;;;;;36.47;13.80;;;;;;;-145.18;0.00;102943.50;5020827;28;20570;-74
2021/10/09 07:24:55;;;;;;;32.87;14.17;;;;;;;-145.18;0.00;102943.50;5023088;28;20122;-74
2021/10/09 07:27:21;;;;;;;34.07;13.47;;;;;;;-145.18;0.00;102943.50;5022251;28;20049;-74
2021/10/09 07:29:46;;;;;;;29.23;12.53;;;;;;;-145.18;0.00;102943.50;5028983;28;20052;-74
2021/10/09 07:32:12;;;;;;;28.07;12.20;;;;;;;-145.18;0.00;102943.50;5028462;28;20245;-74
2021/10/09 07:34:38;;;;;;;24.50;12.07;;;;;;;-145.18;0.00;102943.50;5027481;28;20021;-75
2021/10/09 07:37:04;;;;;;;21.00;10.40;;;;;;;-145.18;0.00;102943.50;5039143;28;20106;-75
2021/10/09 07:39:31;;;;;;;21.80;9.83;;;;;;;-145.18;0.00;102943.50;5034913;28;20026;-75
2021/10/09 07:41:57;;;;;;;19.60;8.80;;;;;;;-145.18;0.00;102943.50;5034642;28;20082;-75
2021/10/09 07:44:24;;;;;;;19.50;8.07;;;;;;;-145.18;0.00;102943.50;5035449;28;20383;-75
2021/10/09 07:46:50;;;;;;;15.33;7.73;;;;;;;-145.18;0.00;102943.50;5033232;28;20350;-76
2021/10/09 07:49:16;;;;;;;16.40;7.87;;;;;;;-145.18;0.00;102943.50;5031372;28;20026;-76
2021/10/09 07:51:41;;;;;;;18.30;7.63;;;;;;;-145.18;0.00;102943.50;5018912;28;20025;-76
2021/10/09 07:54:07;;;;;;;15.77;7.53;;;;;;;-145.18;0.00;102943.50;5027516;28;20025;-76
2021/10/09 07:56:32;;;;;;;13.57;7.40;;;;;;;-145.18;0.00;102943.50;5020312;28;20369;-76
2021/10/09 07:58:58;;;;;;;15.80;7.47;;;;;;;-145.18;0.00;102943.50;5034335;28;20037;-74
2021/10/09 08:01:23;;;;;;;15.30;7.70;;;;;;;-145.18;0.00;102943.50;5029238;28;20033;-74
2021/10/09 08:03:49;;;;;;;17.23;7.67;;;;;;;-145.18;0.00;102943.50;5037183;28;20033;-74
2021/10/09 08:06:15;;;;;;;14.30;6.83;;;;;;;-145.18;0.00;102943.50;5036909;28;20036;-73
2021/10/09 08:08:40;;;;;;;14.60;6.90;;;;;;;-145.18;0.00;102943.50;5030723;28;20095;-73
2021/10/09 08:11:06;;;;;;;19.27;7.37;;;;;;;-145.18;0.00;102943.50;5063237;28;20494;-72
2021/10/09 08:13:36;;;;;;;13.93;6.63;;;;;;;-145.18;0.00;102943.50;5074325;28;20215;-73
2021/10/09 08:16:03;;;;;;;15.50;7.53;;;;;;;-145.18;0.00;102943.50;5070791;28;20039;-73
2021/10/09 08:18:32;;;;;;;20.10;7.40;;;;;;;-145.18;0.00;102943.50;5066667;28;20028;-73
2021/10/09 08:21:07;;;;;;;15.10;6.83;;;;;;;-145.18;0.00;102943.50;5072085;28;20436;-74
2021/10/09 08:23:45;;;;;;;18.17;7.43;;;;;;;-145.18;0.00;102943.50;5074309;28;20043;-73
2021/10/09 08:27:07;;;;;;;15.03;7.17;;;;;;;-145.18;0.00;102943.50;5078413;28;20466;-73
2021/10/09 08:37:20;;;;;;;13.70;6.70;;;;;;;-145.18;0.00;102943.50;5072494;28;20067;-74
2021/10/09 08:39:46;;;;;;;14.50;6.80;;;;;;;-145.18;0.00;102943.50;5067917;28;20109;-75
2021/10/09 08:42:13;;;;;;;15.67;6.90;;;;;;;-145.18;0.00;102943.50;5065487;28;20032;-75
2021/10/09 08:44:40;;;;;;;16.17;7.10;;;;;;;-145.18;0.00;102943.50;5070595;28;20551;-76
2021/10/09 08:47:08;;;;;;;16.17;5.57;;;;;;;-145.18;0.00;102943.50;5065788;28;20032;-75
2021/10/09 08:49:37;;;;;;;14.00;6.53;;;;;;;-145.18;0.00;102943.50;5064395;28;20583;-76
2021/10/09 08:52:04;;;;;;;13.83;6.47;;;;;;;-145.18;0.00;102943.50;5073267;28;20764;-75
2021/10/09 08:54:37;;;;;;;15.10;6.40;;;;;;;-145.18;0.00;102943.50;5067279;28;20623;-74
2021/10/09 08:57:13;;;;;;;16.43;7.37;;;;;;;-145.18;0.00;102943.50;5062096;28;20033;-76
2021/10/09 09:00:05;;;;;;;15.70;6.87;;;;;;;-145.18;0.00;102943.50;5069115;28;20035;-75
2021/10/09 09:08:27;;;;;;;19.20;7.97;;;;;;;-145.18;0.00;102943.50;5066431;28;20485;-74
2021/10/09 09:39:20;;;;;;;16.57;7.57;;;;;;;-145.18;0.00;102943.50;4935394;28;20082;-74
2021/10/09 09:41:50;;;;;;;16.20;7.43;;;;;;;-145.18;0.00;102943.50;4943237;28;20121;-75
2021/10/09 09:44:17;;;;;;;16.67;7.87;;;;;;;-145.18;0.00;102943.50;4936918;28;20318;-74
2021/10/09 09:47:00;;;;;;;15.10;6.77;;;;;;;-145.18;0.00;102943.50;4939592;28;20556;-75
2021/10/09 09:49:27;;;;;;;;;;;;;;;-145.18;0.00;102943.50;4937582;28;20469;-75
2021/10/09 09:51:55;;;;;;;21.07;7.53;;;;;;;-145.18;0.00;102943.50;4943807;28;20324;-74
2021/10/09 09:54:27;;;;;;;19.83;7.23;;;;;;;-145.18;0.00;102943.50;4936048;28;20569;-75
2021/10/09 09:56:57;;;;;;;15.43;7.00;;;;;;;-145.18;0.00;102943.50;4937181;28;20031;-74
2021/10/09 09:59:28;;;;;;;19.20;7.40;;;;;;;-145.18;0.00;102943.50;4937902;28;20599;-75
2021/10/09 10:01:54;;;;;;;16.67;7.93;;;;;;;-145.18;0.00;102943.50;4950958;28;20277;-75
2021/10/09 10:04:21;;;;;;;21.27;7.50;;;;;;;-145.18;0.00;102943.50;4936934;28;20023;-75
2021/10/09 10:06:47;;;;;;;16.83;8.00;;;;;;;-145.18;0.00;102943.50;4940967;28;20031;-74
2021/10/09 10:09:13;;;;;;;20.47;7.77;;;;;;;-145.18;0.00;102943.50;4994928;28;20151;-74
2021/10/09 10:11:38;;;;;;;16.93;7.23;;;;;;;-145.18;0.00;102943.50;5026757;28;20044;-74
2021/10/09 10:14:05;;;;;;;13.77;7.33;;;;;;;-145.18;0.00;102943.50;5065665;28;20035;-74
2021/10/09 10:16:31;;;;;;;21.40;7.50;;;;;;;-145.18;0.00;102943.50;5064290;28;20051;-74
2021/10/09 10:18:58;;;;;;;20.63;7.57;;;;;;;-145.18;0.00;102943.50;5072084;28;20028;-74
2021/10/09 10:21:52;;;;;;;18.80;7.43;;;;;;;-145.18;0.00;102943.50;5071885;28;20024;-74
2021/10/09 10:24:46;;;;;;;21.97;7.70;;;;;;;-145.18;0.00;102943.50;5052516;28;20067;-74
2021/10/09 10:27:40;;;;;;;14.53;6.93;;;;;;;-145.18;0.00;102943.50;5071185;28;20044;-73
2021/10/09 10:30:42;;;;;;;18.90;8.37;;;;;;;-145.18;0.00;102943.50;5066649;28;20024;-74
2021/10/09 10:33:31;;;;;;;17.97;7.60;;;;;;;-145.18;0.00;102943.50;5052418;28;20663;-74
2021/10/09 10:35:57;;;;;;;24.47;7.10;;;;;;;-145.18;0.00;102943.50;5071721;28;20297;-74
2021/10/09 10:38:49;;;;;;;19.13;8.10;;;;;;;-145.18;0.00;102943.50;5068110;28;20280;-74
2021/10/09 10:41:19;;;;;;;13.50;6.85;;;;;;;-145.18;0.00;102943.50;5067204;28;20032;-73
2021/10/09 10:43:56;;;;;;;18.10;7.80;;;;;;;-145.18;0.00;102943.50;5063238;28;20065;-75
2021/10/09 10:46:46;;;;;;;15.80;8.23;;;;;;;-145.18;0.00;102943.50;5066915;28;20101;-74
2021/10/09 10:49:28;;;;;;;18.20;7.73;;;;;;;-145.18;0.00;102943.50;5065395;28;20039;-73
2021/10/09 10:55:02;;;;;;;16.90;8.07;;;;;;;-145.18;0.00;102943.50;5062101;28;20329;-72
2021/10/09 10:57:28;;;;;;;17.10;7.47;;;;;;;-145.18;0.00;102943.50;5076153;28;20466;-72
2021/10/09 11:00:11;;;;;;;18.57;7.37;;;;;;;-145.18;0.00;102943.50;5075732;28;20371;-73
2021/10/09 11:02:44;;;;;;;20.47;8.73;;;;;;;-145.18;0.00;102943.50;5065195;28;20031;-72
2021/10/09 11:05:12;;;;;;;15.00;6.60;;;;;;;-145.18;0.00;102943.50;5071460;28;20108;-73
2021/10/09 11:07:45;;;;;;;17.30;7.27;;;;;;;-145.18;0.00;102943.50;5068474;28;20077;-73
2021/10/09 11:10:20;;;;;;;15.37;6.77;;;;;;;-145.18;0.00;102943.50;5074264;28;20136;-73
2021/10/09 11:12:48;;;;;;;16.97;8.03;;;;;;;-145.18;0.00;102943.50;5076247;28;20216;-73
2021/10/09 11:15:20;;;;;;;18.90;7.87;;;;;;;-145.18;0.00;102943.50;5071566;28;20249;-74
2021/10/09 11:17:56;;;;;;;16.83;8.25;;;;;;;-145.18;0.00;102943.50;5061524;28;20078;-73
2021/10/09 11:20:48;;;;;;;20.97;8.10;;;;;;;-145.18;0.00;102943.50;5073987;28;20050;-74
2021/10/09 11:23:14;;;;;;;17.67;7.57;;;;;;;-145.18;0.00;102943.50;5066481;28;20513;-74
2021/10/09 11:25:42;;;;;;;17.87;8.10;;;;;;;-145.18;0.00;102943.50;5063975;28;20298;-73
2021/10/09 11:28:19;;;;;;;16.47;7.83;;;;;;;-145.18;0.00;102943.50;5068822;28;20224;-73
2021/10/09 11:30:45;;;;;;;18.23;7.17;;;;;;;-145.18;0.00;102943.50;5061969;28;20094;-73
2021/10/09 11:33:11;;;;;;;19.63;7.93;;;;;;;-145.18;0.00;102943.50;5064460;28;20084;-73
2021/10/09 11:35:41;;;;;;;16.93;7.50;;;;;;;-145.18;0.00;102943.50;5065898;28;20023;-73
2021/10/09 11:38:39;;;;;;;15.00;7.40;;;;;;;-145.18;0.00;102943.50;5071537;28;20283;-74
2021/10/09 11:41:13;;;;;;;14.60;7.07;;;;;;;-145.18;0.00;102943.50;5035965;28;20539;-73
2021/10/09 11:43:54;;;;;;;17.13;6.53;;;;;;;-145.18;0.00;102943.50;5071276;28;20398;-73
2021/10/09 11:46:50;;;;;;;23.17;7.83;;;;;;;-145.18;0.00;102943.50;5059775;28;20281;-73
2021/10/09 11:55:22;;;;;;;17.80;7.10;;;;;;;-145.18;0.00;102943.50;4988260;28;20112;-73
2021/10/09 11:57:49;;;;;;;13.07;7.00;;;;;;;-145.18;0.00;102943.50;4981472;28;20117;-73
2021/10/09 12:00:50;;;;;;;17.00;7.30;;;;;;;-145.18;0.00;102943.50;4991533;28;20469;-73
2021/10/09 12:03:47;;;;;;;15.80;7.17;;;;;;;-145.18;0.00;102943.50;4914968;28;20545;-74
2021/10/09 12:06:13;;;;;;;18.97;7.63;;;;;;;-145.18;0.00;102943.50;4875914;29;20128;-73
2021/10/09 12:08:52;;;;;;;17.87;8.00;;;;;;;-145.18;0.00;102943.50;4922441;29;20100;-73
2021/10/09 12:11:26;;;;;;;14.17;7.17;;;;;;;-145.18;0.00;102943.50;4915280;28;20650;-73
2021/10/09 12:14:12;;;;;;;17.83;6.50;;;;;;;-145.18;0.00;102943.50;4913369;29;20036;-73
2021/10/09 12:16:48;;;;;;;14.27;7.07;;;;;;;-145.18;0.00;102943.50;4919547;29;20143;-73
2021/10/09 12:19:31;;;;;;;14.40;6.53;;;;;;;-145.18;0.00;102943.50;4914297;29;20038;-74
2021/10/09 12:22:05;;;;;;;21.07;8.17;;;;;;;-145.18;0.00;102943.50;4918286;29;20039;-74
2021/10/09 12:24:44;;;;;;;18.37;7.50;;;;;;;-145.18;0.00;102943.50;4917319;29;20687;-74
2021/10/09 12:27:16;;;;;;;15.43;6.60;;;;;;;-145.18;0.00;102943.50;4908139;29;20381;-74
2021/10/09 12:30:00;;;;;;;;;;;;;;;-145.18;0.00;102943.50;4968225;28;20116;-73
2021/10/09 12:32:28;;;;;;;18.50;7.57;;;;;;;-145.18;0.00;102943.50;4965431;28;19914;-72
2021/10/09 12:35:12;;;;;;;16.97;7.20;;;;;;;-145.18;0.00;102943.50;4977157;28;20382;-71
2021/10/09 12:37:53;;;;;;;12.47;6.03;;;;;;;-145.18;0.00;102943.50;5023783;28;20110;-71
2021/10/09 12:40:18;;;;;;;15.70;6.88;;;;;;;-145.18;0.00;102943.50;5071422;28;20168;-71
2021/10/09 12:42:46;;;;;;;20.90;6.95;;;;;;;-145.18;0.00;102943.50;5075829;28;20285;-71
2021/10/09 12:45:12;;;;;;;15.85;6.72;;;;;;;-145.18;0.00;102943.50;5071160;28;20106;-71
2021/10/09 12:47:37;;;;;;;20.60;7.28;;;;;;;-145.18;0.00;102943.50;5069909;28;20055;-71
2021/10/09 12:50:04;;;;;;;17.75;6.53;;;;;;;-145.18;0.00;102943.50;5070205;28;20098;-71
2021/10/09 12:52:29;;;;;;;21.63;7.55;;;;;;;-145.18;0.00;102943.50;5076672;28;20035;-71
2021/10/09 12:54:55;;;;;;;15.05;6.43;;;;;;;-145.18;0.00;102943.50;5067344;28;20261;-70
2021/10/09 12:57:20;;;;;;;14.30;6.85;;;;;;;-145.18;0.00;102943.50;5070913;28;20015;-71
2021/10/09 12:59:46;;;;;;;13.40;6.20;;;;;;;-145.18;0.00;102943.50;5068254;28;20871;-70
2021/10/09 13:02:12;;;;;;;13.48;6.88;;;;;;;-145.18;0.00;102943.50;5065159;28;20021;-70
2021/10/09 13:04:39;;;;;;;16.98;6.20;;;;;;;-145.18;0.00;102943.50;5071803;28;20031;-71
2021/10/09 13:07:04;;;;;;;17.30;6.47;;;;;;;-145.18;0.00;102943.50;5070899;28;20510;-70
2021/10/09 13:09:30;;;;;;;17.13;6.45;;;;;;;-145.18;0.00;102943.50;5076354;28;20035;-70